sensor_id;sensor_type;location;lat;lon;timestamp;temperature;humidity
61117;DHT22;47002;50.856;6.580;2022-09-28T00:00:58;6.10;94.20
61117;DHT22;47002;50.856;6.580;2022-09-28T00:03:24;6.10;94.20
61117;DHT22;47002;50.856;6.580;2022-09-28T00:05:49;6.10;94.10
61117;DHT22;47002;50.856;6.580;2022-09-28T00:08:15;6.10;94.00
61117;DHT22;47002;50.856;6.580;2022-09-28T00:10:41;6.20;94.00
61117;DHT22;47002;50.856;6.580;2022-09-28T00:13:08;6.20;93.90
61117;DHT22;47002;50.856;6.580;2022-09-28T00:15:33;6.20;93.90
61117;DHT22;47002;50.856;6.580;2022-09-28T00:17:59;6.20;93.90
61117;DHT22;47002;50.856;6.580;2022-09-28T00:20:25;6.20;93.80
61117;DHT22;47002;50.856;6.580;2022-09-28T00:22:50;6.20;93.70
61117;DHT22;47002;50.856;6.580;2022-09-28T00:25:16;6.20;93.70
61117;DHT22;47002;50.856;6.580;2022-09-28T00:27:42;6.20;93.70
61117;DHT22;47002;50.856;6.580;2022-09-28T00:30:15;6.20;93.70
61117;DHT22;47002;50.856;6.580;2022-09-28T00:32:40;6.20;93.70
61117;DHT22;47002;50.856;6.580;2022-09-28T00:35:06;6.20;93.70
61117;DHT22;47002;50.856;6.580;2022-09-28T00:37:32;6.20;93.70
61117;DHT22;47002;50.856;6.580;2022-09-28T00:39:58;6.20;93.60
61117;DHT22;47002;50.856;6.580;2022-09-28T00:42:25;6.20;93.60
61117;DHT22;47002;50.856;6.580;2022-09-28T00:44:51;6.20;93.60
61117;DHT22;47002;50.856;6.580;2022-09-28T00:47:36;6.20;93.50
61117;DHT22;47002;50.856;6.580;2022-09-28T00:50:08;6.20;93.60
61117;DHT22;47002;50.856;6.580;2022-09-28T00:52:37;6.20;93.50
61117;DHT22;47002;50.856;6.580;2022-09-28T00:55:07;6.20;93.30
61117;DHT22;47002;50.856;6.580;2022-09-28T00:57:35;6.20;93.30
61117;DHT22;47002;50.856;6.580;2022-09-28T01:00:02;6.30;93.30
61117;DHT22;47002;50.856;6.580;2022-09-28T01:02:30;6.20;93.40
61117;DHT22;47002;50.856;6.580;2022-09-28T01:04:56;6.20;93.40
61117;DHT22;47002;50.856;6.580;2022-09-28T01:07:22;6.20;93.50
61117;DHT22;47002;50.856;6.580;2022-09-28T01:09:48;6.20;93.60
61117;DHT22;47002;50.856;6.580;2022-09-28T01:12:14;6.20;93.60
61117;DHT22;47002;50.856;6.580;2022-09-28T01:14:40;6.20;93.70
61117;DHT22;47002;50.856;6.580;2022-09-28T01:17:13;6.20;93.70
61117;DHT22;47002;50.856;6.580;2022-09-28T01:25:53;6.20;93.80
61117;DHT22;47002;50.856;6.580;2022-09-28T01:28:23;6.30;93.80
61117;DHT22;47002;50.856;6.580;2022-09-28T01:30:55;6.30;93.90
61117;DHT22;47002;50.856;6.580;2022-09-28T01:33:24;6.30;94.00
61117;DHT22;47002;50.856;6.580;2022-09-28T01:35:54;6.30;94.10
61117;DHT22;47002;50.856;6.580;2022-09-28T01:38:25;6.30;94.10
61117;DHT22;47002;50.856;6.580;2022-09-28T01:40:53;6.30;94.20
61117;DHT22;47002;50.856;6.580;2022-09-28T01:43:23;6.30;94.30
61117;DHT22;47002;50.856;6.580;2022-09-28T01:45:52;6.30;94.30
61117;DHT22;47002;50.856;6.580;2022-09-28T01:48:22;6.30;94.30
61117;DHT22;47002;50.856;6.580;2022-09-28T01:50:50;6.40;94.30
61117;DHT22;47002;50.856;6.580;2022-09-28T01:53:21;6.40;94.30
61117;DHT22;47002;50.856;6.580;2022-09-28T01:55:51;6.40;94.30
61117;DHT22;47002;50.856;6.580;2022-09-28T01:58:23;6.40;94.30
61117;DHT22;47002;50.856;6.580;2022-09-28T02:00:58;6.40;94.30
61117;DHT22;47002;50.856;6.580;2022-09-28T02:03:30;6.40;94.30
61117;DHT22;47002;50.856;6.580;2022-09-28T02:06:01;6.40;94.30
61117;DHT22;47002;50.856;6.580;2022-09-28T02:08:32;6.40;94.20
61117;DHT22;47002;50.856;6.580;2022-09-28T02:11:02;6.40;94.30
61117;DHT22;47002;50.856;6.580;2022-09-28T02:13:34;6.30;94.40
61117;DHT22;47002;50.856;6.580;2022-09-28T02:16:04;6.30;94.40
61117;DHT22;47002;50.856;6.580;2022-09-28T02:18:34;6.30;94.40
61117;DHT22;47002;50.856;6.580;2022-09-28T02:21:06;6.30;94.50
61117;DHT22;47002;50.856;6.580;2022-09-28T02:23:35;6.20;94.50
61117;DHT22;47002;50.856;6.580;2022-09-28T02:26:05;6.20;94.50
61117;DHT22;47002;50.856;6.580;2022-09-28T02:28:32;6.20;94.50
61117;DHT22;47002;50.856;6.580;2022-09-28T02:30:58;6.10;94.50
61117;DHT22;47002;50.856;6.580;2022-09-28T02:33:28;6.20;94.40
61117;DHT22;47002;50.856;6.580;2022-09-28T02:35:56;6.10;94.40
61117;DHT22;47002;50.856;6.580;2022-09-28T02:38:22;6.10;94.30
61117;DHT22;47002;50.856;6.580;2022-09-28T02:40:56;6.20;94.30
61117;DHT22;47002;50.856;6.580;2022-09-28T02:43:28;6.20;94.30
61117;DHT22;47002;50.856;6.580;2022-09-28T02:46:05;6.20;94.40
61117;DHT22;47002;50.856;6.580;2022-09-28T02:48:50;6.20;94.30
61117;DHT22;47002;50.856;6.580;2022-09-28T02:51:22;6.30;94.30
61117;DHT22;47002;50.856;6.580;2022-09-28T02:57:14;6.30;94.20
61117;DHT22;47002;50.856;6.580;2022-09-28T02:59:47;6.30;94.10
61117;DHT22;47002;50.856;6.580;2022-09-28T03:02:23;6.40;94.00
61117;DHT22;47002;50.856;6.580;2022-09-28T03:05:08;6.40;93.90
61117;DHT22;47002;50.856;6.580;2022-09-28T03:07:39;6.40;93.80
61117;DHT22;47002;50.856;6.580;2022-09-28T03:10:11;6.40;93.80
61117;DHT22;47002;50.856;6.580;2022-09-28T03:12:39;6.40;93.90
61117;DHT22;47002;50.856;6.580;2022-09-28T03:15:09;6.30;94.00
61117;DHT22;47002;50.856;6.580;2022-09-28T03:17:36;6.30;94.00
61117;DHT22;47002;50.856;6.580;2022-09-28T03:20:02;6.30;94.10
61117;DHT22;47002;50.856;6.580;2022-09-28T03:22:28;6.30;94.20
61117;DHT22;47002;50.856;6.580;2022-09-28T03:24:54;6.30;94.30
61117;DHT22;47002;50.856;6.580;2022-09-28T03:27:20;6.30;94.30
61117;DHT22;47002;50.856;6.580;2022-09-28T03:29:45;6.30;94.40
61117;DHT22;47002;50.856;6.580;2022-09-28T03:32:11;6.30;94.30
61117;DHT22;47002;50.856;6.580;2022-09-28T03:34:38;6.30;94.20
61117;DHT22;47002;50.856;6.580;2022-09-28T03:37:03;6.40;94.20
61117;DHT22;47002;50.856;6.580;2022-09-28T03:39:29;6.40;94.10
61117;DHT22;47002;50.856;6.580;2022-09-28T03:41:55;6.40;94.10
61117;DHT22;47002;50.856;6.580;2022-09-28T03:44:20;6.40;94.00
61117;DHT22;47002;50.856;6.580;2022-09-28T03:46:46;6.40;94.10
61117;DHT22;47002;50.856;6.580;2022-09-28T03:49:12;6.40;94.00
61117;DHT22;47002;50.856;6.580;2022-09-28T03:51:39;6.40;93.90
61117;DHT22;47002;50.856;6.580;2022-09-28T03:54:05;6.40;93.80
61117;DHT22;47002;50.856;6.580;2022-09-28T03:56:31;6.50;93.60
61117;DHT22;47002;50.856;6.580;2022-09-28T03:58:56;6.40;93.60
61117;DHT22;47002;50.856;6.580;2022-09-28T04:01:22;6.50;93.60
61117;DHT22;47002;50.856;6.580;2022-09-28T04:03:52;6.40;93.60
61117;DHT22;47002;50.856;6.580;2022-09-28T04:06:18;6.40;93.40
61117;DHT22;47002;50.856;6.580;2022-09-28T04:08:45;6.40;93.40
61117;DHT22;47002;50.856;6.580;2022-09-28T04:11:11;6.40;93.40
61117;DHT22;47002;50.856;6.580;2022-09-28T04:13:36;6.40;93.30
61117;DHT22;47002;50.856;6.580;2022-09-28T04:16:02;6.40;93.20
61117;DHT22;47002;50.856;6.580;2022-09-28T04:18:28;6.40;93.30
61117;DHT22;47002;50.856;6.580;2022-09-28T04:21:01;6.40;93.30
61117;DHT22;47002;50.856;6.580;2022-09-28T04:23:27;6.40;93.30
61117;DHT22;47002;50.856;6.580;2022-09-28T04:25:54;6.40;93.40
61117;DHT22;47002;50.856;6.580;2022-09-28T04:28:20;6.40;93.40
61117;DHT22;47002;50.856;6.580;2022-09-28T04:30:46;6.40;93.50
61117;DHT22;47002;50.856;6.580;2022-09-28T04:33:12;6.40;93.60
61117;DHT22;47002;50.856;6.580;2022-09-28T04:35:37;6.40;93.40
61117;DHT22;47002;50.856;6.580;2022-09-28T04:38:03;6.40;93.30
61117;DHT22;47002;50.856;6.580;2022-09-28T04:40:29;6.40;93.20
61117;DHT22;47002;50.856;6.580;2022-09-28T04:42:56;6.40;93.20
61117;DHT22;47002;50.856;6.580;2022-09-28T04:45:22;6.40;93.10
61117;DHT22;47002;50.856;6.580;2022-09-28T04:47:48;6.30;93.10
61117;DHT22;47002;50.856;6.580;2022-09-28T04:50:13;6.40;93.10
61117;DHT22;47002;50.856;6.580;2022-09-28T04:52:39;6.30;93.20
61117;DHT22;47002;50.856;6.580;2022-09-28T04:55:05;6.30;93.30
61117;DHT22;47002;50.856;6.580;2022-09-28T04:57:33;6.30;93.30
61117;DHT22;47002;50.856;6.580;2022-09-28T05:00:00;6.30;93.30
61117;DHT22;47002;50.856;6.580;2022-09-28T05:02:26;6.30;93.30
61117;DHT22;47002;50.856;6.580;2022-09-28T05:04:52;6.30;93.20
61117;DHT22;47002;50.856;6.580;2022-09-28T05:07:17;6.20;93.20
61117;DHT22;47002;50.856;6.580;2022-09-28T05:09:43;6.20;93.20
61117;DHT22;47002;50.856;6.580;2022-09-28T05:12:08;6.20;93.30
61117;DHT22;47002;50.856;6.580;2022-09-28T05:14:34;6.10;93.40
61117;DHT22;47002;50.856;6.580;2022-09-28T05:17:01;6.20;93.50
61117;DHT22;47002;50.856;6.580;2022-09-28T05:19:27;6.10;93.50
61117;DHT22;47002;50.856;6.580;2022-09-28T05:21:53;6.10;93.50
61117;DHT22;47002;50.856;6.580;2022-09-28T05:24:18;6.10;93.50
61117;DHT22;47002;50.856;6.580;2022-09-28T05:26:44;6.10;93.40
61117;DHT22;47002;50.856;6.580;2022-09-28T05:29:10;6.10;93.40
61117;DHT22;47002;50.856;6.580;2022-09-28T05:31:35;6.10;93.30
61117;DHT22;47002;50.856;6.580;2022-09-28T05:34:02;6.10;93.30
61117;DHT22;47002;50.856;6.580;2022-09-28T05:36:28;6.10;93.40
61117;DHT22;47002;50.856;6.580;2022-09-28T05:38:54;6.10;93.30
61117;DHT22;47002;50.856;6.580;2022-09-28T05:41:19;6.10;93.30
61117;DHT22;47002;50.856;6.580;2022-09-28T05:43:45;6.10;93.30
61117;DHT22;47002;50.856;6.580;2022-09-28T05:46:11;6.10;93.30
61117;DHT22;47002;50.856;6.580;2022-09-28T05:48:36;6.10;93.30
61117;DHT22;47002;50.856;6.580;2022-09-28T05:51:03;6.10;93.30
61117;DHT22;47002;50.856;6.580;2022-09-28T05:53:29;6.10;93.20
61117;DHT22;47002;50.856;6.580;2022-09-28T05:55:56;6.10;93.20
61117;DHT22;47002;50.856;6.580;2022-09-28T05:58:22;6.10;93.10
61117;DHT22;47002;50.856;6.580;2022-09-28T06:00:53;6.10;93.00
61117;DHT22;47002;50.856;6.580;2022-09-28T06:03:18;6.10;93.00
61117;DHT22;47002;50.856;6.580;2022-09-28T06:05:44;6.10;92.90
61117;DHT22;47002;50.856;6.580;2022-09-28T06:08:11;6.10;92.90
61117;DHT22;47002;50.856;6.580;2022-09-28T06:10:38;6.10;92.80
61117;DHT22;47002;50.856;6.580;2022-09-28T06:13:04;6.10;92.80
61117;DHT22;47002;50.856;6.580;2022-09-28T06:15:31;6.10;92.60
61117;DHT22;47002;50.856;6.580;2022-09-28T06:17:57;6.20;92.50
61117;DHT22;47002;50.856;6.580;2022-09-28T06:20:24;6.20;92.20
61117;DHT22;47002;50.856;6.580;2022-09-28T06:22:50;6.20;92.10
61117;DHT22;47002;50.856;6.580;2022-09-28T06:25:17;6.30;92.10
61117;DHT22;47002;50.856;6.580;2022-09-28T06:27:50;6.30;92.00
61117;DHT22;47002;50.856;6.580;2022-09-28T06:30:17;6.40;91.80
61117;DHT22;47002;50.856;6.580;2022-09-28T06:32:43;6.40;91.50
61117;DHT22;47002;50.856;6.580;2022-09-28T06:35:08;6.40;91.30
61117;DHT22;47002;50.856;6.580;2022-09-28T06:37:34;6.50;91.30
61117;DHT22;47002;50.856;6.580;2022-09-28T06:40:00;6.50;91.30
61117;DHT22;47002;50.856;6.580;2022-09-28T06:42:27;6.50;91.20
61117;DHT22;47002;50.856;6.580;2022-09-28T06:44:53;6.50;91.20
61117;DHT22;47002;50.856;6.580;2022-09-28T06:47:18;6.50;91.10
61117;DHT22;47002;50.856;6.580;2022-09-28T06:49:44;6.60;90.80
61117;DHT22;47002;50.856;6.580;2022-09-28T06:52:10;6.60;90.90
61117;DHT22;47002;50.856;6.580;2022-09-28T06:54:35;6.60;90.70
61117;DHT22;47002;50.856;6.580;2022-09-28T06:57:01;6.70;90.70
61117;DHT22;47002;50.856;6.580;2022-09-28T06:59:28;6.70;90.60
61117;DHT22;47002;50.856;6.580;2022-09-28T07:01:54;6.80;90.40
61117;DHT22;47002;50.856;6.580;2022-09-28T07:04:19;6.80;90.50
61117;DHT22;47002;50.856;6.580;2022-09-28T07:06:46;6.90;90.60
61117;DHT22;47002;50.856;6.580;2022-09-28T07:09:11;6.90;90.40
61117;DHT22;47002;50.856;6.580;2022-09-28T07:11:37;6.90;90.40
61117;DHT22;47002;50.856;6.580;2022-09-28T07:14:03;7.00;90.50
61117;DHT22;47002;50.856;6.580;2022-09-28T07:16:30;7.10;90.20
61117;DHT22;47002;50.856;6.580;2022-09-28T07:18:55;7.10;89.80
61117;DHT22;47002;50.856;6.580;2022-09-28T07:21:21;7.20;89.60
61117;DHT22;47002;50.856;6.580;2022-09-28T07:23:47;7.20;89.30
61117;DHT22;47002;50.856;6.580;2022-09-28T07:26:13;7.30;88.80
61117;DHT22;47002;50.856;6.580;2022-09-28T07:28:38;7.30;88.80
61117;DHT22;47002;50.856;6.580;2022-09-28T07:31:04;7.40;89.10
61117;DHT22;47002;50.856;6.580;2022-09-28T07:33:31;7.40;88.70
61117;DHT22;47002;50.856;6.580;2022-09-28T07:35:57;7.50;88.80
61117;DHT22;47002;50.856;6.580;2022-09-28T07:38:23;7.50;88.50
61117;DHT22;47002;50.856;6.580;2022-09-28T07:40:48;7.60;88.20
61117;DHT22;47002;50.856;6.580;2022-09-28T07:43:14;7.60;87.80
61117;DHT22;47002;50.856;6.580;2022-09-28T07:45:42;7.70;87.60
61117;DHT22;47002;50.856;6.580;2022-09-28T07:48:08;7.70;87.60
61117;DHT22;47002;50.856;6.580;2022-09-28T07:50:35;7.80;86.80
61117;DHT22;47002;50.856;6.580;2022-09-28T07:53:00;7.80;86.70
61117;DHT22;47002;50.856;6.580;2022-09-28T07:55:26;7.80;85.70
61117;DHT22;47002;50.856;6.580;2022-09-28T07:57:55;7.90;86.10
61117;DHT22;47002;50.856;6.580;2022-09-28T08:00:21;7.90;86.80
61117;DHT22;47002;50.856;6.580;2022-09-28T08:02:47;8.00;85.80
61117;DHT22;47002;50.856;6.580;2022-09-28T08:05:13;8.00;85.50
61117;DHT22;47002;50.856;6.580;2022-09-28T08:07:41;7.90;85.50
61117;DHT22;47002;50.856;6.580;2022-09-28T08:10:07;7.90;85.30
61117;DHT22;47002;50.856;6.580;2022-09-28T08:12:33;7.90;85.50
61117;DHT22;47002;50.856;6.580;2022-09-28T08:14:59;8.00;85.20
61117;DHT22;47002;50.856;6.580;2022-09-28T08:17:24;8.00;84.90
61117;DHT22;47002;50.856;6.580;2022-09-28T08:19:50;8.10;85.20
61117;DHT22;47002;50.856;6.580;2022-09-28T08:22:16;8.10;85.20
61117;DHT22;47002;50.856;6.580;2022-09-28T08:24:44;8.20;83.90
61117;DHT22;47002;50.856;6.580;2022-09-28T08:27:10;8.20;84.10
61117;DHT22;47002;50.856;6.580;2022-09-28T08:29:35;8.30;84.30
61117;DHT22;47002;50.856;6.580;2022-09-28T08:32:01;8.40;84.20
61117;DHT22;47002;50.856;6.580;2022-09-28T08:34:27;8.50;83.50
61117;DHT22;47002;50.856;6.580;2022-09-28T08:36:55;8.60;83.50
61117;DHT22;47002;50.856;6.580;2022-09-28T08:39:21;8.70;83.40
61117;DHT22;47002;50.856;6.580;2022-09-28T08:41:54;8.80;83.50
61117;DHT22;47002;50.856;6.580;2022-09-28T08:44:23;8.90;83.20
61117;DHT22;47002;50.856;6.580;2022-09-28T08:46:54;8.90;82.70
61117;DHT22;47002;50.856;6.580;2022-09-28T08:49:25;9.00;83.10
61117;DHT22;47002;50.856;6.580;2022-09-28T08:51:58;9.10;82.50
61117;DHT22;47002;50.856;6.580;2022-09-28T08:54:32;9.10;81.20
61117;DHT22;47002;50.856;6.580;2022-09-28T08:57:03;9.10;80.60
61117;DHT22;47002;50.856;6.580;2022-09-28T08:59:40;9.10;80.30
61117;DHT22;47002;50.856;6.580;2022-09-28T09:02:14;9.10;80.30
61117;DHT22;47002;50.856;6.580;2022-09-28T09:04:40;9.10;79.10
61117;DHT22;47002;50.856;6.580;2022-09-28T09:07:16;9.10;80.20
61117;DHT22;47002;50.856;6.580;2022-09-28T09:09:55;9.10;80.10
61117;DHT22;47002;50.856;6.580;2022-09-28T09:12:32;9.20;80.00
61117;DHT22;47002;50.856;6.580;2022-09-28T09:15:17;9.40;80.70
61117;DHT22;47002;50.856;6.580;2022-09-28T09:17:55;9.60;78.00
61117;DHT22;47002;50.856;6.580;2022-09-28T09:20:34;9.60;77.30
61117;DHT22;47002;50.856;6.580;2022-09-28T09:23:07;9.70;78.70
61117;DHT22;47002;50.856;6.580;2022-09-28T09:25:40;9.80;78.60
61117;DHT22;47002;50.856;6.580;2022-09-28T09:28:31;9.80;77.70
61117;DHT22;47002;50.856;6.580;2022-09-28T09:31:07;9.90;78.00
61117;DHT22;47002;50.856;6.580;2022-09-28T09:34:00;10.00;76.30
61117;DHT22;47002;50.856;6.580;2022-09-28T09:36:37;10.00;75.60
61117;DHT22;47002;50.856;6.580;2022-09-28T09:39:17;10.10;74.50
61117;DHT22;47002;50.856;6.580;2022-09-28T09:42:00;10.00;74.60
61117;DHT22;47002;50.856;6.580;2022-09-28T09:44:51;9.90;75.40
61117;DHT22;47002;50.856;6.580;2022-09-28T09:47:25;9.90;74.80
61117;DHT22;47002;50.856;6.580;2022-09-28T09:49:58;10.00;75.00
61117;DHT22;47002;50.856;6.580;2022-09-28T09:52:29;10.00;74.40
61117;DHT22;47002;50.856;6.580;2022-09-28T09:55:00;10.10;75.00
61117;DHT22;47002;50.856;6.580;2022-09-28T09:57:31;10.10;74.80
61117;DHT22;47002;50.856;6.580;2022-09-28T10:00:02;10.20;74.70
61117;DHT22;47002;50.856;6.580;2022-09-28T10:02:30;10.30;74.70
61117;DHT22;47002;50.856;6.580;2022-09-28T10:04:59;10.40;75.60
61117;DHT22;47002;50.856;6.580;2022-09-28T10:07:32;10.60;73.70
61117;DHT22;47002;50.856;6.580;2022-09-28T10:10:02;10.60;74.00
61117;DHT22;47002;50.856;6.580;2022-09-28T10:12:28;10.60;74.70
61117;DHT22;47002;50.856;6.580;2022-09-28T10:14:54;10.70;73.60
61117;DHT22;47002;50.856;6.580;2022-09-28T10:17:21;10.70;73.70
61117;DHT22;47002;50.856;6.580;2022-09-28T10:19:47;10.80;73.10
61117;DHT22;47002;50.856;6.580;2022-09-28T10:22:15;10.80;70.80
61117;DHT22;47002;50.856;6.580;2022-09-28T10:24:43;10.80;70.50
61117;DHT22;47002;50.856;6.580;2022-09-28T10:27:13;10.90;70.80
61117;DHT22;47002;50.856;6.580;2022-09-28T10:29:44;11.00;69.90
61117;DHT22;47002;50.856;6.580;2022-09-28T10:32:23;11.10;67.90
61117;DHT22;47002;50.856;6.580;2022-09-28T10:34:50;11.30;69.80
61117;DHT22;47002;50.856;6.580;2022-09-28T10:37:17;11.50;66.90
61117;DHT22;47002;50.856;6.580;2022-09-28T10:39:46;11.30;67.40
61117;DHT22;47002;50.856;6.580;2022-09-28T10:42:19;11.30;66.40
61117;DHT22;47002;50.856;6.580;2022-09-28T10:44:58;11.30;66.50
61117;DHT22;47002;50.856;6.580;2022-09-28T10:47:28;11.30;65.70
61117;DHT22;47002;50.856;6.580;2022-09-28T10:49:55;11.40;66.00
61117;DHT22;47002;50.856;6.580;2022-09-28T10:52:38;11.50;66.50
61117;DHT22;47002;50.856;6.580;2022-09-28T10:55:28;11.50;65.60
61117;DHT22;47002;50.856;6.580;2022-09-28T10:57:54;11.50;66.00
61117;DHT22;47002;50.856;6.580;2022-09-28T11:00:33;11.50;67.40
61117;DHT22;47002;50.856;6.580;2022-09-28T11:03:01;11.50;67.10
61117;DHT22;47002;50.856;6.580;2022-09-28T11:05:27;11.40;66.70
61117;DHT22;47002;50.856;6.580;2022-09-28T11:07:54;11.30;67.20
61117;DHT22;47002;50.856;6.580;2022-09-28T11:10:21;11.20;67.60
61117;DHT22;47002;50.856;6.580;2022-09-28T11:12:48;11.20;67.80
61117;DHT22;47002;50.856;6.580;2022-09-28T11:15:17;11.20;68.10
61117;DHT22;47002;50.856;6.580;2022-09-28T11:17:43;11.20;68.60
61117;DHT22;47002;50.856;6.580;2022-09-28T11:20:37;11.40;68.30
61117;DHT22;47002;50.856;6.580;2022-09-28T11:23:17;11.50;67.70
61117;DHT22;47002;50.856;6.580;2022-09-28T11:25:55;11.60;67.60
61117;DHT22;47002;50.856;6.580;2022-09-28T11:28:25;11.60;67.40
61117;DHT22;47002;50.856;6.580;2022-09-28T11:30:53;11.50;67.60
61117;DHT22;47002;50.856;6.580;2022-09-28T11:33:23;11.60;67.60
61117;DHT22;47002;50.856;6.580;2022-09-28T11:35:57;11.50;67.20
61117;DHT22;47002;50.856;6.580;2022-09-28T11:38:31;11.40;67.80
61117;DHT22;47002;50.856;6.580;2022-09-28T11:41:06;11.40;67.00
61117;DHT22;47002;50.856;6.580;2022-09-28T11:43:55;11.30;67.20
61117;DHT22;47002;50.856;6.580;2022-09-28T11:46:31;11.20;67.60
61117;DHT22;47002;50.856;6.580;2022-09-28T11:49:02;11.10;68.10
61117;DHT22;47002;50.856;6.580;2022-09-28T11:51:33;11.10;68.90
61117;DHT22;47002;50.856;6.580;2022-09-28T11:54:04;11.10;68.60
61117;DHT22;47002;50.856;6.580;2022-09-28T11:56:37;11.10;69.10
61117;DHT22;47002;50.856;6.580;2022-09-28T11:59:09;11.30;68.30
61117;DHT22;47002;50.856;6.580;2022-09-28T12:01:41;11.60;68.70
61117;DHT22;47002;50.856;6.580;2022-09-28T12:04:12;11.90;68.40
61117;DHT22;47002;50.856;6.580;2022-09-28T12:06:44;12.10;66.20
61117;DHT22;47002;50.856;6.580;2022-09-28T12:09:15;12.10;65.30
61117;DHT22;47002;50.856;6.580;2022-09-28T12:11:43;11.90;65.50
61117;DHT22;47002;50.856;6.580;2022-09-28T12:14:19;11.90;65.70
61117;DHT22;47002;50.856;6.580;2022-09-28T12:16:49;11.80;66.40
61117;DHT22;47002;50.856;6.580;2022-09-28T12:19:20;11.90;66.90
61117;DHT22;47002;50.856;6.580;2022-09-28T12:21:52;12.00;67.40
61117;DHT22;47002;50.856;6.580;2022-09-28T12:24:23;12.10;67.50
61117;DHT22;47002;50.856;6.580;2022-09-28T12:26:53;11.90;65.90
61117;DHT22;47002;50.856;6.580;2022-09-28T12:29:25;11.80;66.60
61117;DHT22;47002;50.856;6.580;2022-09-28T12:31:58;11.70;67.80
61117;DHT22;47002;50.856;6.580;2022-09-28T12:34:26;11.60;66.80
61117;DHT22;47002;50.856;6.580;2022-09-28T12:37:16;11.60;67.20
61117;DHT22;47002;50.856;6.580;2022-09-28T12:39:57;11.50;67.50
61117;DHT22;47002;50.856;6.580;2022-09-28T12:42:43;11.40;67.20
61117;DHT22;47002;50.856;6.580;2022-09-28T12:45:26;11.40;67.50
61117;DHT22;47002;50.856;6.580;2022-09-28T12:48:08;11.40;67.70
61117;DHT22;47002;50.856;6.580;2022-09-28T12:50:38;11.40;66.50
61117;DHT22;47002;50.856;6.580;2022-09-28T12:53:28;11.40;66.80
61117;DHT22;47002;50.856;6.580;2022-09-28T12:56:02;11.40;67.30
61117;DHT22;47002;50.856;6.580;2022-09-28T12:58:41;11.50;66.80
61117;DHT22;47002;50.856;6.580;2022-09-28T13:06:55;11.60;66.80
61117;DHT22;47002;50.856;6.580;2022-09-28T13:09:27;11.50;66.90
61117;DHT22;47002;50.856;6.580;2022-09-28T13:12:14;11.60;67.80
61117;DHT22;47002;50.856;6.580;2022-09-28T13:14:59;11.60;67.00
61117;DHT22;47002;50.856;6.580;2022-09-28T13:17:39;11.60;66.70
61117;DHT22;47002;50.856;6.580;2022-09-28T13:20:20;11.70;67.90
61117;DHT22;47002;50.856;6.580;2022-09-28T13:22:53;11.80;66.90
61117;DHT22;47002;50.856;6.580;2022-09-28T13:25:24;11.80;67.40
61117;DHT22;47002;50.856;6.580;2022-09-28T13:27:54;11.90;68.20
61117;DHT22;47002;50.856;6.580;2022-09-28T13:30:21;12.00;67.70
61117;DHT22;47002;50.856;6.580;2022-09-28T13:32:47;11.90;66.90
61117;DHT22;47002;50.856;6.580;2022-09-28T13:35:16;11.90;67.80
61117;DHT22;47002;50.856;6.580;2022-09-28T13:37:42;11.90;68.40
61117;DHT22;47002;50.856;6.580;2022-09-28T13:40:07;12.00;68.60
61117;DHT22;47002;50.856;6.580;2022-09-28T13:42:50;12.00;68.10
61117;DHT22;47002;50.856;6.580;2022-09-28T13:45:37;12.10;68.40
61117;DHT22;47002;50.856;6.580;2022-09-28T13:48:13;12.10;67.70
61117;DHT22;47002;50.856;6.580;2022-09-28T13:50:54;12.10;67.30
61117;DHT22;47002;50.856;6.580;2022-09-28T13:53:25;12.10;67.10
61117;DHT22;47002;50.856;6.580;2022-09-28T13:55:59;12.10;65.90
61117;DHT22;47002;50.856;6.580;2022-09-28T13:58:32;12.60;64.70
61117;DHT22;47002;50.856;6.580;2022-09-28T14:01:05;13.10;62.80
61117;DHT22;47002;50.856;6.580;2022-09-28T14:03:53;14.20;59.80
61117;DHT22;47002;50.856;6.580;2022-09-28T14:06:24;15.00;57.30
61117;DHT22;47002;50.856;6.580;2022-09-28T14:09:06;15.90;55.20
61117;DHT22;47002;50.856;6.580;2022-09-28T14:11:42;16.90;51.30
61117;DHT22;47002;50.856;6.580;2022-09-28T14:20:15;17.00;49.10
61117;DHT22;47002;50.856;6.580;2022-09-28T14:22:50;15.70;51.40
61117;DHT22;47002;50.856;6.580;2022-09-28T14:25:22;14.90;53.90
61117;DHT22;47002;50.856;6.580;2022-09-28T14:27:59;14.70;54.50
61117;DHT22;47002;50.856;6.580;2022-09-28T14:30:28;14.90;54.50
61117;DHT22;47002;50.856;6.580;2022-09-28T14:32:59;15.00;55.00
61117;DHT22;47002;50.856;6.580;2022-09-28T14:35:40;14.80;54.80
61117;DHT22;47002;50.856;6.580;2022-09-28T14:38:14;14.20;57.00
61117;DHT22;47002;50.856;6.580;2022-09-28T14:41:00;13.80;59.10
61117;DHT22;47002;50.856;6.580;2022-09-28T14:43:33;13.50;59.60
61117;DHT22;47002;50.856;6.580;2022-09-28T14:46:35;13.30;59.90
61117;DHT22;47002;50.856;6.580;2022-09-28T14:49:01;12.90;61.00
61117;DHT22;47002;50.856;6.580;2022-09-28T14:52:00;12.60;62.40
61117;DHT22;47002;50.856;6.580;2022-09-28T14:54:28;12.10;65.10
61117;DHT22;47002;50.856;6.580;2022-09-28T14:57:04;11.60;66.50
61117;DHT22;47002;50.856;6.580;2022-09-28T14:59:31;11.10;68.30
61117;DHT22;47002;50.856;6.580;2022-09-28T15:02:01;10.70;69.20
61117;DHT22;47002;50.856;6.580;2022-09-28T15:04:29;11.00;70.40
61117;DHT22;47002;50.856;6.580;2022-09-28T15:06:57;11.20;70.00
61117;DHT22;47002;50.856;6.580;2022-09-28T15:09:26;11.40;70.20
61117;DHT22;47002;50.856;6.580;2022-09-28T15:11:51;11.60;70.20
61117;DHT22;47002;50.856;6.580;2022-09-28T15:14:17;11.50;70.20
61117;DHT22;47002;50.856;6.580;2022-09-28T15:16:43;11.50;70.90
61117;DHT22;47002;50.856;6.580;2022-09-28T15:19:21;11.40;71.60
61117;DHT22;47002;50.856;6.580;2022-09-28T15:21:49;11.30;71.70
61117;DHT22;47002;50.856;6.580;2022-09-28T15:24:28;11.20;72.30
61117;DHT22;47002;50.856;6.580;2022-09-28T15:26:54;11.10;73.40
61117;DHT22;47002;50.856;6.580;2022-09-28T15:29:20;11.00;73.10
61117;DHT22;47002;50.856;6.580;2022-09-28T15:31:46;11.00;74.10
61117;DHT22;47002;50.856;6.580;2022-09-28T15:34:25;10.80;73.90
61117;DHT22;47002;50.856;6.580;2022-09-28T15:36:51;10.70;71.40
61117;DHT22;47002;50.856;6.580;2022-09-28T15:39:19;10.50;70.60
61117;DHT22;47002;50.856;6.580;2022-09-28T15:41:49;10.40;70.60
61117;DHT22;47002;50.856;6.580;2022-09-28T15:44:26;10.30;72.10
61117;DHT22;47002;50.856;6.580;2022-09-28T15:47:05;10.20;71.50
61117;DHT22;47002;50.856;6.580;2022-09-28T15:49:36;10.10;71.90
61117;DHT22;47002;50.856;6.580;2022-09-28T15:52:02;10.00;72.10
61117;DHT22;47002;50.856;6.580;2022-09-28T15:54:33;9.90;71.90
61117;DHT22;47002;50.856;6.580;2022-09-28T15:57:04;9.80;71.90
61117;DHT22;47002;50.856;6.580;2022-09-28T15:59:31;9.70;72.40
61117;DHT22;47002;50.856;6.580;2022-09-28T16:02:09;9.70;72.50
61117;DHT22;47002;50.856;6.580;2022-09-28T16:04:38;9.60;72.50
61117;DHT22;47002;50.856;6.580;2022-09-28T16:07:17;9.60;73.10
61117;DHT22;47002;50.856;6.580;2022-09-28T16:09:58;9.50;73.50
61117;DHT22;47002;50.856;6.580;2022-09-28T16:12:29;9.50;74.20
61117;DHT22;47002;50.856;6.580;2022-09-28T16:14:58;9.40;75.00
61117;DHT22;47002;50.856;6.580;2022-09-28T16:17:29;9.40;75.70
61117;DHT22;47002;50.856;6.580;2022-09-28T16:19:55;9.30;76.20